TAF and METAR

Decoding for American and Canadian METARs and TAFs is not fully implemented.

Could not understand the following METAR

CYCB 230900Z 33007KT 15SM FEW012 M17/M19 A3045 RMK SC1 SLP316

TAF for Cambridge Bay Airport

TAF CYCB 230638Z 2307/2319 35010KT P6SM SCT012 TEMPO 2307/2313 BKN012 RMK NXT FCST BY 231300Z
Report created 23. mai 08:38

between 23. mai 09:00 - 23. mai 21:00

wind 10 knots from N (350°)
Cambridge Bay Airport in Canada at 27m

Latest 5 airports